createdAt,value
2018-07-14T00:02:24.215Z,10.27
2018-07-14T00:04:53.358Z,8.33
2018-07-14T00:07:22.537Z,8.73
2018-07-14T00:09:51.826Z,9.30
2018-07-14T00:12:20.826Z,8.80
2018-07-14T00:14:49.903Z,8.43
2018-07-14T00:17:18.943Z,10.10
2018-07-14T00:19:48.017Z,8.83
2018-07-14T00:22:17.161Z,9.47
2018-07-14T00:24:46.237Z,8.63
2018-07-14T00:27:15.293Z,9.83
2018-07-14T00:29:44.374Z,9.33
2018-07-14T00:32:13.465Z,9.00
2018-07-14T00:34:42.631Z,8.80
2018-07-14T00:37:11.714Z,10.37
2018-07-14T00:39:40.808Z,9.70
2018-07-14T00:42:09.870Z,9.70
2018-07-14T00:44:39.000Z,8.30
2018-07-14T00:47:08.090Z,9.37
2018-07-14T00:49:37.154Z,8.80
2018-07-14T00:52:06.258Z,11.13
2018-07-14T00:54:35.334Z,10.47
2018-07-14T00:57:04.430Z,8.57
2018-07-14T00:59:33.537Z,9.20
2018-07-14T01:02:02.637Z,9.53
2018-07-14T01:04:31.713Z,10.80
2018-07-14T01:07:00.849Z,9.10
2018-07-14T01:09:30.000Z,9.30
2018-07-14T01:11:59.210Z,10.73
2018-07-14T01:14:28.400Z,9.83
2018-07-14T01:17:00.548Z,9.20
2018-07-14T01:19:29.634Z,9.30
2018-07-14T01:21:59.145Z,10.93
2018-07-14T01:24:28.908Z,9.50
2018-07-14T01:26:58.078Z,9.60
2018-07-14T01:29:27.180Z,8.70
2018-07-14T01:31:56.271Z,9.80
2018-07-14T01:34:25.334Z,9.37
2018-07-14T01:36:54.437Z,9.60
2018-07-14T01:39:23.494Z,10.20
2018-07-14T01:41:52.645Z,10.10
2018-07-14T01:44:21.765Z,10.27
2018-07-14T01:46:50.853Z,12.00
2018-07-14T01:49:20.718Z,9.70
2018-07-14T01:51:49.766Z,10.47
2018-07-14T01:54:18.881Z,10.30
2018-07-14T01:56:48.002Z,9.60
2018-07-14T01:59:17.010Z,9.23
2018-07-14T02:01:46.070Z,10.23
2018-07-14T02:04:15.271Z,10.10
2018-07-14T02:06:44.401Z,10.20
2018-07-14T02:09:13.489Z,12.93
2018-07-14T02:11:42.546Z,10.57
2018-07-14T02:14:11.600Z,9.37
2018-07-14T02:16:40.686Z,10.57
2018-07-14T02:19:09.795Z,10.20
2018-07-14T02:21:38.833Z,9.97
2018-07-14T02:24:07.952Z,10.33
2018-07-14T02:26:37.261Z,10.20
2018-07-14T02:29:06.317Z,10.67
2018-07-14T02:31:35.475Z,10.80
2018-07-14T02:34:04.614Z,11.37
2018-07-14T02:36:33.797Z,11.20
2018-07-14T02:39:02.966Z,10.17
2018-07-14T02:41:31.967Z,13.33
2018-07-14T02:44:01.158Z,10.27
2018-07-14T02:46:30.215Z,12.13
2018-07-14T02:48:59.332Z,13.60
2018-07-14T02:51:28.802Z,8.87
2018-07-14T02:53:58.034Z,9.80
2018-07-14T02:56:27.182Z,9.57
2018-07-14T02:58:56.589Z,10.37
2018-07-14T03:01:25.669Z,10.30
2018-07-14T03:03:54.782Z,10.73
2018-07-14T03:06:23.932Z,10.10
2018-07-14T03:08:54.497Z,10.73
2018-07-14T03:11:23.987Z,11.10
2018-07-14T03:13:53.091Z,13.27
2018-07-14T03:16:22.221Z,10.90
2018-07-14T03:18:51.325Z,10.03
2018-07-14T03:21:20.430Z,10.67
2018-07-14T03:23:49.515Z,10.87
2018-07-14T03:26:18.657Z,12.53
2018-07-14T03:28:47.840Z,10.80
2018-07-14T03:31:16.934Z,13.47
2018-07-14T03:33:46.010Z,11.43
2018-07-14T03:36:15.240Z,11.63
2018-07-14T03:38:44.395Z,11.60
2018-07-14T03:41:13.474Z,11.43
2018-07-14T03:43:42.761Z,13.13
2018-07-14T03:46:12.131Z,11.67
2018-07-14T03:48:41.563Z,11.80
2018-07-14T03:51:11.560Z,11.70
2018-07-14T03:53:40.592Z,11.00
2018-07-14T03:56:09.742Z,12.17
2018-07-14T03:58:39.279Z,11.57
2018-07-14T04:01:08.443Z,11.73
2018-07-14T04:03:37.488Z,11.10
2018-07-14T04:06:07.213Z,11.63
2018-07-14T04:08:36.390Z,11.33
2018-07-14T04:11:05.568Z,12.30
2018-07-14T04:13:34.654Z,14.87
2018-07-14T04:16:03.802Z,11.10
2018-07-14T04:18:32.922Z,11.57
2018-07-14T04:21:02.118Z,11.53
2018-07-14T04:23:31.221Z,12.03
2018-07-14T04:26:00.679Z,12.07
2018-07-14T04:28:30.182Z,12.03
2018-07-14T04:30:59.272Z,12.07
2018-07-14T04:33:28.376Z,11.37
2018-07-14T04:35:57.473Z,11.80
2018-07-14T04:38:26.694Z,12.03
2018-07-14T04:40:55.734Z,11.00
2018-07-14T04:43:24.827Z,15.50
2018-07-14T04:45:53.994Z,12.30
2018-07-14T04:48:23.205Z,13.63
2018-07-14T04:50:52.310Z,11.83
2018-07-14T04:53:21.473Z,11.90
2018-07-14T04:55:50.670Z,11.47
2018-07-14T04:58:19.763Z,11.10
2018-07-14T05:00:48.886Z,10.33
2018-07-14T05:03:18.405Z,11.80
2018-07-14T05:05:47.641Z,11.70
2018-07-14T05:08:16.714Z,11.87
2018-07-14T05:10:45.753Z,12.13
2018-07-14T05:13:14.865Z,12.63
2018-07-14T05:15:44.007Z,12.23
2018-07-14T05:18:13.118Z,13.90
2018-07-14T05:20:42.187Z,11.73
2018-07-14T05:23:11.266Z,12.03
2018-07-14T05:25:40.518Z,11.90
2018-07-14T05:28:10.950Z,12.17
2018-07-14T05:30:40.094Z,12.23
2018-07-14T05:33:09.711Z,16.40
2018-07-14T05:35:38.836Z,12.47
2018-07-14T05:38:08.153Z,13.47
2018-07-14T05:40:37.235Z,12.67
2018-07-14T05:43:07.741Z,11.63
2018-07-14T05:45:36.909Z,12.80
2018-07-14T05:48:06.933Z,12.40
2018-07-14T05:50:36.096Z,13.13
2018-07-14T05:53:05.303Z,12.90
2018-07-14T05:55:34.399Z,12.57
2018-07-14T05:58:03.503Z,12.30
2018-07-14T06:00:32.632Z,12.10
2018-07-14T06:03:01.742Z,13.13
2018-07-14T06:05:30.888Z,15.93
2018-07-14T06:08:00.402Z,19.37
2018-07-14T06:10:29.678Z,13.27
2018-07-14T06:12:58.760Z,15.20
2018-07-14T06:15:27.889Z,15.50
2018-07-14T06:17:57.076Z,13.73
2018-07-14T06:20:26.176Z,16.10
2018-07-14T06:22:55.336Z,13.13
2018-07-14T06:25:24.594Z,14.50
2018-07-14T06:27:54.353Z,14.73
2018-07-14T06:30:25.377Z,14.17
2018-07-14T06:32:54.460Z,13.30
2018-07-14T06:35:23.842Z,14.10
2018-07-14T06:37:52.973Z,14.13
2018-07-14T06:40:22.391Z,12.23
2018-07-14T06:42:51.524Z,12.73
2018-07-14T06:45:20.770Z,11.53
2018-07-14T06:47:50.628Z,11.67
2018-07-14T06:50:20.065Z,11.70
2018-07-14T06:52:49.245Z,11.03
2018-07-14T06:55:18.573Z,13.00
2018-07-14T06:57:47.630Z,12.73
2018-07-14T07:00:16.766Z,12.97
2018-07-14T07:02:45.973Z,15.07
2018-07-14T07:05:15.048Z,11.93
2018-07-14T07:07:44.140Z,12.43
2018-07-14T07:10:13.218Z,13.57
2018-07-14T07:12:42.334Z,15.30
2018-07-14T07:15:11.426Z,13.23
2018-07-14T07:17:40.544Z,15.57
2018-07-14T07:20:09.688Z,16.63
2018-07-14T07:22:38.794Z,12.63
2018-07-14T07:25:07.913Z,10.50
2018-07-14T07:27:37.095Z,12.67
2018-07-14T07:30:07.097Z,12.60
2018-07-14T07:32:36.187Z,10.50
2018-07-14T07:35:05.336Z,11.70
2018-07-14T07:37:34.524Z,11.40
2018-07-14T07:40:03.681Z,13.43
2018-07-14T07:42:33.160Z,9.93
2018-07-14T07:45:02.356Z,9.47
2018-07-14T07:47:31.450Z,8.50
2018-07-14T07:50:00.705Z,17.77
2018-07-14T07:52:29.794Z,10.50
2018-07-14T07:54:59.469Z,9.33
2018-07-14T07:57:28.599Z,11.00
2018-07-14T07:59:57.733Z,11.67
2018-07-14T08:02:26.881Z,8.40
2018-07-14T08:04:55.971Z,8.90
2018-07-14T08:07:25.081Z,10.20
2018-07-14T08:09:54.209Z,8.20
2018-07-14T08:12:23.358Z,8.73
2018-07-14T08:14:52.585Z,12.73
2018-07-14T08:17:21.767Z,10.00
2018-07-14T08:19:51.297Z,8.27
2018-07-14T08:22:20.486Z,8.97
2018-07-14T08:24:49.676Z,7.80
2018-07-14T08:27:18.908Z,8.27
2018-07-14T08:29:47.955Z,9.30
2018-07-14T08:32:17.332Z,8.70
2018-07-14T08:34:46.383Z,11.70
2018-07-14T08:37:15.461Z,7.47
2018-07-14T08:39:44.586Z,13.93
2018-07-14T08:42:13.713Z,18.43
2018-07-14T08:44:42.960Z,12.90
2018-07-14T08:47:12.009Z,5.77
2018-07-14T08:49:41.085Z,12.90
2018-07-14T08:52:10.184Z,7.97
2018-07-14T08:54:39.277Z,8.17
2018-07-14T08:57:09.573Z,9.17
2018-07-14T08:59:38.681Z,6.77
2018-07-14T09:02:07.788Z,6.97
2018-07-14T09:04:36.854Z,8.17
2018-07-14T09:07:06.179Z,6.20
2018-07-14T09:09:35.398Z,8.67
2018-07-14T09:12:04.529Z,6.47
2018-07-14T09:14:33.831Z,10.07
2018-07-14T09:17:02.931Z,5.67
2018-07-14T09:19:32.023Z,6.20
2018-07-14T09:22:01.905Z,5.67
2018-07-14T09:24:32.818Z,6.07
2018-07-14T09:27:01.913Z,7.20
2018-07-14T09:29:31.137Z,6.20
2018-07-14T09:32:00.314Z,6.80
2018-07-14T09:34:29.426Z,8.10
2018-07-14T09:36:58.471Z,5.77
2018-07-14T09:39:27.573Z,5.87
2018-07-14T09:41:56.654Z,6.30
2018-07-14T09:44:26.837Z,5.93
2018-07-14T09:46:56.010Z,6.00
2018-07-14T09:49:25.107Z,7.40
2018-07-14T09:51:54.721Z,6.17
2018-07-14T09:54:24.323Z,5.77
2018-07-14T09:56:53.488Z,7.23
2018-07-14T09:59:22.636Z,5.90
2018-07-14T10:01:51.856Z,6.47
2018-07-14T10:04:21.120Z,5.33
2018-07-14T10:06:50.907Z,7.50
2018-07-14T10:09:20.004Z,9.20
2018-07-14T10:11:49.138Z,5.50
2018-07-14T10:14:18.291Z,5.57
2018-07-14T10:16:47.384Z,5.40
2018-07-14T10:19:17.534Z,9.30
2018-07-14T10:21:46.780Z,5.60
2018-07-14T10:24:15.963Z,5.53
2018-07-14T10:26:45.079Z,5.37
2018-07-14T10:29:14.227Z,6.27
2018-07-14T10:31:47.370Z,7.10
2018-07-14T10:34:16.551Z,5.70
2018-07-14T10:36:46.185Z,5.60
2018-07-14T10:39:15.461Z,6.33
2018-07-14T10:41:44.594Z,8.00
2018-07-14T10:44:13.725Z,5.10
2018-07-14T10:46:42.956Z,6.83
2018-07-14T10:49:12.354Z,5.87
2018-07-14T10:51:41.460Z,5.83
2018-07-14T10:54:10.565Z,5.50
2018-07-14T10:56:39.827Z,7.97
2018-07-14T10:59:09.010Z,5.83
2018-07-14T11:01:38.308Z,5.13
2018-07-14T11:04:08.461Z,7.00
2018-07-14T11:06:37.641Z,7.20
2018-07-14T11:09:07.599Z,6.17
2018-07-14T11:11:36.697Z,7.20
2018-07-14T11:14:05.834Z,5.90
2018-07-14T11:16:35.031Z,12.60
2018-07-14T11:19:04.170Z,5.97
2018-07-14T11:21:33.320Z,7.30
2018-07-14T11:24:02.380Z,9.10
2018-07-14T11:26:31.530Z,8.83
2018-07-14T11:29:01.082Z,14.23
2018-07-14T11:31:30.312Z,7.80
2018-07-14T11:33:59.622Z,5.90
2018-07-14T11:36:28.822Z,6.17
2018-07-14T11:38:58.465Z,6.53
2018-07-14T11:41:27.580Z,6.23
2018-07-14T11:43:56.710Z,10.60
2018-07-14T11:46:25.757Z,6.20
2018-07-14T11:48:54.890Z,5.80
2018-07-14T11:51:24.153Z,7.27
2018-07-14T11:53:53.660Z,7.13
2018-07-14T11:56:22.776Z,6.60
2018-07-14T11:58:51.917Z,7.30
2018-07-14T12:01:21.097Z,6.77
2018-07-14T12:03:50.164Z,6.57
2018-07-14T12:06:19.207Z,7.07
2018-07-14T12:08:48.333Z,7.23
2018-07-14T12:11:17.441Z,15.27
2018-07-14T12:13:46.566Z,6.03
2018-07-14T12:16:15.678Z,5.90
2018-07-14T12:18:45.074Z,6.23
2018-07-14T12:21:14.459Z,7.37
2018-07-14T12:23:43.568Z,6.07
2018-07-14T12:26:12.721Z,7.73
2018-07-14T12:28:41.927Z,7.43
2018-07-14T12:31:11.414Z,5.97
2018-07-14T12:33:40.478Z,8.83
2018-07-14T12:36:09.735Z,6.70
2018-07-14T12:38:38.921Z,6.97
2018-07-14T12:41:08.118Z,6.87
2018-07-14T12:43:37.344Z,6.20
2018-07-14T12:46:06.450Z,6.20
2018-07-14T12:48:35.517Z,6.63
2018-07-14T12:51:04.642Z,5.77
2018-07-14T12:53:33.789Z,6.47
2018-07-14T12:56:04.839Z,6.27
2018-07-14T12:58:33.985Z,5.80
2018-07-14T13:01:03.640Z,6.30
2018-07-14T13:03:32.809Z,8.03
2018-07-14T13:06:01.940Z,9.60
2018-07-14T13:08:31.056Z,12.13
2018-07-14T13:11:00.297Z,8.60
2018-07-14T13:13:29.336Z,6.20
2018-07-14T13:15:58.436Z,9.67
2018-07-14T13:18:27.537Z,6.30
2018-07-14T13:20:56.635Z,8.20
2018-07-14T13:23:26.301Z,7.37
2018-07-14T13:25:55.434Z,6.53
2018-07-14T13:28:24.529Z,5.87
2018-07-14T13:30:53.631Z,5.70
2018-07-14T13:33:23.056Z,5.97
2018-07-14T13:35:52.714Z,6.13
2018-07-14T13:38:22.184Z,6.47
2018-07-14T13:40:51.381Z,6.20
2018-07-14T13:43:20.691Z,7.73
2018-07-14T13:45:49.794Z,6.30
2018-07-14T14:09:49.267Z,6.90
2018-07-14T14:12:18.381Z,8.90
2018-07-14T14:14:47.910Z,5.33
2018-07-14T14:17:17.001Z,5.27
2018-07-14T14:19:46.163Z,6.00
2018-07-14T14:22:15.244Z,5.80
2018-07-14T14:24:44.453Z,8.07
2018-07-14T14:27:20.023Z,8.23
2018-07-14T14:29:49.118Z,5.47
2018-07-14T14:32:18.201Z,7.87
2018-07-14T14:34:47.314Z,5.97
2018-07-14T14:37:16.440Z,7.07
2018-07-14T14:39:45.831Z,5.43
2018-07-14T14:42:14.924Z,6.53
2018-07-14T14:44:44.175Z,5.50
2018-07-14T14:47:13.278Z,5.93
2018-07-14T14:49:42.341Z,6.20
2018-07-14T14:52:11.485Z,6.00
2018-07-14T14:54:40.556Z,6.50
2018-07-14T14:57:09.670Z,6.50
2018-07-14T14:59:39.742Z,5.57
2018-07-14T15:02:08.829Z,13.90
2018-07-14T15:04:37.984Z,7.30
2018-07-14T15:07:07.571Z,5.93
2018-07-14T15:09:36.633Z,6.80
2018-07-14T15:12:05.700Z,5.80
2018-07-14T15:14:34.802Z,9.20
2018-07-14T15:17:03.943Z,5.90
2018-07-14T15:19:32.973Z,7.20
2018-07-14T15:22:02.146Z,5.60
2018-07-14T15:24:31.228Z,5.10
2018-07-14T15:27:00.405Z,16.77
2018-07-14T15:29:29.461Z,9.97
2018-07-14T15:31:58.557Z,5.90
2018-07-14T15:34:27.621Z,6.77
2018-07-14T15:36:56.714Z,6.53
2018-07-14T15:39:25.769Z,5.20
2018-07-14T15:41:54.842Z,5.93
2018-07-14T15:44:24.010Z,9.03
2018-07-14T15:46:53.281Z,5.67
2018-07-14T15:49:22.398Z,8.40
2018-07-14T15:51:51.499Z,5.30
2018-07-14T15:54:20.683Z,7.40
2018-07-14T15:56:49.862Z,5.97
2018-07-14T15:59:18.965Z,5.70
2018-07-14T16:01:48.044Z,6.43
2018-07-14T16:04:17.194Z,5.57
2018-07-14T16:06:46.254Z,6.33
2018-07-14T16:09:15.360Z,6.00
2018-07-14T16:11:44.450Z,6.67
2018-07-14T16:14:13.609Z,5.70
2018-07-14T16:16:42.722Z,5.67
2018-07-14T16:19:11.810Z,8.60
2018-07-14T16:21:40.864Z,5.77
2018-07-14T16:24:09.998Z,5.30
2018-07-14T16:26:39.267Z,5.90
2018-07-14T16:29:08.417Z,5.50
2018-07-14T16:31:37.484Z,6.70
2018-07-14T16:34:06.623Z,4.90
2018-07-14T16:36:35.834Z,14.03
2018-07-14T16:39:07.100Z,16.63
2018-07-14T16:41:36.189Z,8.13
2018-07-14T16:44:05.362Z,5.20
2018-07-14T16:46:34.459Z,6.10
2018-07-14T16:49:03.577Z,6.13
2018-07-14T16:51:32.661Z,5.40
2018-07-14T16:54:01.798Z,5.77
2018-07-14T16:56:30.943Z,6.73
2018-07-14T16:59:00.024Z,4.87
2018-07-14T17:01:29.109Z,11.63
2018-07-14T17:03:58.183Z,5.90
2018-07-14T17:06:27.275Z,4.93
2018-07-14T17:08:56.378Z,5.70
2018-07-14T17:11:25.467Z,5.57
2018-07-14T17:13:54.567Z,6.03
2018-07-14T17:16:23.650Z,4.60
2018-07-14T17:18:52.723Z,5.30
2018-07-14T17:21:21.827Z,5.60
2018-07-14T17:23:50.968Z,11.03
2018-07-14T17:26:20.097Z,6.60
2018-07-14T17:28:49.240Z,7.23
2018-07-14T17:31:18.406Z,4.97
2018-07-14T17:33:47.461Z,5.50
2018-07-14T17:36:16.701Z,8.50
2018-07-14T17:38:45.744Z,9.37
2018-07-14T17:41:14.854Z,5.70
2018-07-14T17:43:44.040Z,6.57
2018-07-14T17:46:13.093Z,7.70
2018-07-14T17:48:42.106Z,4.70
2018-07-14T17:51:14.869Z,5.57
2018-07-14T17:53:44.069Z,6.20
2018-07-14T17:56:13.152Z,6.93
2018-07-14T17:58:43.728Z,4.90
2018-07-14T18:01:12.852Z,7.20
2018-07-14T18:03:41.879Z,8.33
2018-07-14T18:06:12.113Z,5.37
2018-07-14T18:08:41.190Z,5.33
2018-07-14T18:11:11.579Z,6.97
2018-07-14T18:13:41.043Z,5.23
2018-07-14T18:16:10.215Z,4.70
2018-07-14T18:18:40.372Z,6.30
2018-07-14T18:21:09.421Z,5.37
2018-07-14T18:23:38.594Z,5.10
2018-07-14T18:26:07.869Z,5.03
2018-07-14T18:28:36.896Z,9.27
2018-07-14T18:31:06.026Z,5.43
2018-07-14T18:33:35.332Z,8.03
2018-07-14T18:36:04.521Z,5.17
2018-07-14T18:38:34.175Z,5.07
2018-07-14T18:41:03.253Z,6.40
2018-07-14T18:43:32.323Z,7.33
2018-07-14T18:46:01.403Z,5.20
2018-07-14T18:48:30.585Z,13.73
2018-07-14T18:50:59.634Z,7.90
2018-07-14T18:53:28.718Z,6.87
2018-07-14T18:55:58.017Z,5.87
2018-07-14T18:58:27.714Z,6.87
2018-07-14T19:00:56.857Z,5.60
2018-07-14T19:03:25.949Z,9.07
2018-07-14T19:05:55.066Z,5.80
2018-07-14T19:08:25.173Z,6.43
2018-07-14T19:10:54.528Z,6.23
2018-07-14T19:13:24.033Z,7.07
2018-07-14T19:15:53.097Z,6.40
2018-07-14T19:18:22.537Z,5.70
2018-07-14T19:20:51.656Z,5.90
2018-07-14T19:23:20.838Z,5.40
2018-07-14T19:25:50.000Z,8.27
2018-07-14T19:28:19.009Z,7.07
2018-07-14T19:30:48.927Z,6.37
2018-07-14T19:33:17.989Z,6.20
2018-07-14T19:35:47.124Z,11.43
2018-07-14T19:38:16.263Z,11.57
2018-07-14T19:40:45.718Z,10.00
2018-07-14T19:43:16.195Z,7.50
2018-07-14T19:45:45.329Z,9.80
2018-07-14T19:48:14.413Z,7.70
2018-07-14T19:50:43.613Z,9.63
2018-07-14T19:53:12.717Z,7.33
2018-07-14T19:55:41.870Z,6.57
2018-07-14T19:58:10.980Z,7.53
2018-07-14T20:00:40.189Z,8.50
2018-07-14T20:03:09.308Z,7.37
2018-07-14T20:05:38.469Z,6.97
2018-07-14T20:08:07.572Z,7.50
2018-07-14T20:10:36.767Z,8.97
2018-07-14T20:13:05.950Z,7.73
2018-07-14T20:15:35.182Z,13.33
2018-07-14T20:18:04.292Z,12.33
2018-07-14T20:20:33.467Z,15.23
2018-07-14T20:23:02.723Z,9.00
2018-07-14T20:25:31.920Z,8.97
2018-07-14T20:28:01.391Z,9.37
2018-07-14T20:30:30.887Z,7.57
2018-07-14T20:33:00.089Z,7.90
2018-07-14T20:35:29.314Z,7.93
2018-07-14T20:37:58.495Z,8.60
2018-07-14T20:40:29.499Z,7.70
2018-07-14T20:42:59.837Z,9.70
2018-07-14T20:45:32.494Z,8.30
2018-07-14T20:48:01.754Z,7.00
2018-07-14T20:50:30.839Z,7.50
2018-07-14T20:52:59.989Z,10.40
2018-07-14T20:55:29.524Z,10.53
2018-07-14T20:57:58.771Z,7.40
2018-07-14T21:00:28.024Z,11.77
2018-07-14T21:02:57.315Z,7.53
2018-07-14T21:05:26.526Z,9.30
2018-07-14T21:07:55.640Z,8.87
2018-07-14T21:10:24.825Z,7.33
2018-07-14T21:12:54.043Z,13.33
2018-07-14T21:15:23.272Z,7.70
2018-07-14T21:17:52.465Z,7.60
2018-07-14T21:20:22.288Z,7.63
2018-07-14T21:22:51.518Z,7.47
2018-07-14T21:25:20.612Z,7.93
2018-07-14T21:27:50.346Z,7.07
2018-07-14T21:30:19.532Z,7.17
2018-07-14T21:32:49.160Z,9.53
2018-07-14T21:35:18.400Z,6.47
2018-07-14T21:37:48.186Z,7.87
2018-07-14T21:40:17.421Z,9.10
2018-07-14T21:42:46.684Z,7.83
2018-07-14T21:45:15.940Z,7.33
2018-07-14T21:47:45.042Z,7.27
2018-07-14T21:50:15.079Z,7.40
2018-07-14T21:52:44.518Z,7.40
2018-07-14T21:55:13.657Z,7.23
2018-07-14T21:57:42.797Z,7.67
2018-07-14T22:00:22.026Z,7.40
2018-07-14T22:02:51.073Z,9.33
2018-07-14T22:05:20.280Z,10.30
2018-07-14T22:07:49.323Z,10.27
2018-07-14T22:10:18.439Z,10.70
2018-07-14T22:12:47.572Z,9.40
2018-07-14T22:15:16.754Z,9.03
2018-07-14T22:17:45.971Z,7.90
2018-07-14T22:20:15.111Z,8.50
2018-07-14T22:22:44.242Z,8.97
2018-07-14T22:25:13.747Z,10.50
2018-07-14T22:27:42.940Z,9.07
2018-07-14T22:30:12.067Z,8.97
2018-07-14T22:32:41.210Z,10.80
2018-07-14T22:35:10.313Z,10.97
2018-07-14T22:37:39.447Z,8.20
2018-07-14T22:40:08.533Z,8.30
2018-07-14T22:42:37.645Z,7.80
2018-07-14T22:45:06.787Z,8.23
2018-07-14T22:47:35.898Z,8.40
2018-07-14T22:50:04.986Z,7.93
2018-07-14T22:52:34.193Z,7.90
2018-07-14T22:55:03.288Z,7.80
2018-07-14T22:57:32.373Z,8.10
2018-07-14T23:00:01.494Z,7.90
2018-07-14T23:02:30.586Z,9.07
2018-07-14T23:04:59.684Z,8.80
2018-07-14T23:07:28.762Z,9.97
2018-07-14T23:09:57.878Z,11.47
2018-07-14T23:12:26.918Z,9.33
2018-07-14T23:14:56.074Z,13.60
2018-07-14T23:17:25.156Z,11.47
2018-07-14T23:19:54.372Z,9.30
2018-07-14T23:22:23.488Z,9.40
2018-07-14T23:24:52.603Z,11.53
2018-07-14T23:27:21.687Z,10.30
2018-07-14T23:29:50.841Z,9.23
2018-07-14T23:32:19.971Z,10.00
2018-07-14T23:34:49.210Z,10.30
2018-07-14T23:37:18.402Z,9.53
2018-07-14T23:39:47.523Z,9.43
2018-07-14T23:42:16.605Z,9.07
2018-07-14T23:44:45.690Z,9.10
2018-07-14T23:47:14.779Z,9.10
2018-07-14T23:49:43.928Z,8.83
2018-07-14T23:52:13.526Z,11.10
2018-07-14T23:54:42.636Z,9.33
2018-07-14T23:57:11.758Z,9.93
2018-07-14T23:59:41.018Z,9.60
